KLSE/LSE METAR and TAF weather

Enter ICAO airport designator
Station Type Date Time Source
KLSE METAR 2021/07/29 01:53 UTC NOAA

KLSE 290153Z 18012KT 10SM CLR 28/24 A2981 RMK AO2 SLP084 T02780244


Station Type Date Time Source
KLSE Decoded METAR 2021/07/29 01:53 UTC NOAA

LA CROSSE MUNICIPAL AIRPORT , WI, United States (KLSE) 43-53N 091-15W 200M
Jul 28, 2021 - 09:53 PM EDT / 2021.07.29 0153 UTC
Wind: from the S (180 degrees) at 14 MPH (12 KT):0
Visibility: 10 mile(s):0
Sky conditions: clear
Temperature: 82.0 F (27.8 C)
Dew Point: 75.9 F (24.4 C)
Relative Humidity: 81%
Pressure (altimeter): 29.81 in. Hg (1009 hPa)
ob: KLSE 290153Z 18012KT 10SM CLR 28/24 A2981 RMK AO2 SLP084 T02780244
cycle: 2

Station Type Date Time Source
KLSE TAF 2021/07/29 01:24 UTC NOAA

TAF
AMD KLSE 290123Z 2901/2924 18008KT P6SM BKN100
FM290300 20010KT P6SM VCTS SCT040CB BKN080
FM290600 24007KT P6SM SCT080 BKN150
FM291000 33009KT P6SM SCT150

Example: see airport list